Time;durP1;ratioP1;P1;durP2;ratioP2;P2;SDS_P1;SDS_P2;PMS_P1;PMS_P2;Temp;Humidity;BMP_temperature;BMP_pressure;BME280_temperature;BME280_humidity;BME280_pressure;Samples;Min_cycle;Max_cycle;Signal;HPM_P1;HPM_P2
2021/06/19 00:01:40;;;;;;;0.47;0.47;;;24.30;59.60;;;;;;4988642;28;20034;-29
2021/06/19 00:04:05;;;;;;;0.70;0.70;;;24.30;59.50;;;;;;4988262;28;20061;-28
2021/06/19 00:06:31;;;;;;;1.27;0.70;;;24.20;59.50;;;;;;4986139;28;20066;-30
2021/06/19 00:08:56;;;;;;;0.60;0.57;;;24.20;59.50;;;;;;4986649;28;20034;-31
2021/06/19 00:11:22;;;;;;;2.25;0.55;;;24.20;59.60;;;;;;4986552;28;20080;-32
2021/06/19 00:13:48;;;;;;;0.60;0.60;;;24.20;59.60;;;;;;4971421;28;20042;-32
2021/06/19 00:16:13;;;;;;;0.60;0.60;;;24.20;59.60;;;;;;4989983;28;20102;-36
2021/06/19 00:18:39;;;;;;;0.60;0.60;;;24.30;59.50;;;;;;4986986;28;20034;-29
2021/06/19 00:21:05;;;;;;;0.50;0.50;;;24.20;59.60;;;;;;4986732;28;20145;-33
2021/06/19 00:23:31;;;;;;;0.47;0.47;;;24.20;59.60;;;;;;4986589;28;20030;-33
2021/06/19 00:25:56;;;;;;;0.50;0.45;;;24.30;59.70;;;;;;4972586;28;20498;-33
2021/06/19 00:28:23;;;;;;;0.88;0.70;;;24.20;59.60;;;;;;4990764;28;20043;-31
2021/06/19 00:30:49;;;;;;;0.57;0.57;;;24.20;59.70;;;;;;5000898;28;20401;-32
2021/06/19 00:33:15;;;;;;;0.90;0.65;;;24.20;59.70;;;;;;4988170;28;20023;-32
2021/06/19 00:35:40;;;;;;;0.63;0.63;;;24.20;59.70;;;;;;4986739;28;20393;-33
2021/06/19 00:38:06;;;;;;;0.40;0.40;;;24.20;59.70;;;;;;4986827;28;20027;-29
2021/06/19 00:40:31;;;;;;;0.50;0.50;;;24.20;59.70;;;;;;4992582;28;20023;-29
2021/06/19 00:42:58;;;;;;;0.50;0.50;;;24.10;59.70;;;;;;4976763;28;20034;-30
2021/06/19 00:45:25;;;;;;;0.60;0.60;;;24.10;59.70;;;;;;4989826;28;20031;-30
2021/06/19 00:47:51;;;;;;;0.70;0.70;;;24.20;59.70;;;;;;4990525;28;20539;-31
2021/06/19 00:50:17;;;;;;;0.80;0.52;;;24.20;59.60;;;;;;4991177;28;20509;-33
2021/06/19 00:52:43;;;;;;;0.60;0.55;;;24.20;59.70;;;;;;4991325;28;20037;-32
2021/06/19 00:55:09;;;;;;;0.50;0.50;;;24.20;59.70;;;;;;4992054;28;20031;-31
2021/06/19 00:57:35;;;;;;;0.55;0.55;;;24.20;59.70;;;;;;4990043;28;20034;-35
2021/06/19 01:00:01;;;;;;;0.45;0.45;;;24.20;59.70;;;;;;4991204;28;20022;-30
2021/06/19 01:02:26;;;;;;;0.68;0.68;;;24.10;59.70;;;;;;4989779;28;20563;-32
2021/06/19 01:04:52;;;;;;;0.52;0.52;;;24.10;59.80;;;;;;4989433;28;20532;-31
2021/06/19 01:07:18;;;;;;;0.98;0.80;;;24.10;59.90;;;;;;4993297;28;20042;-33
2021/06/19 01:09:44;;;;;;;0.60;0.60;;;24.10;60.00;;;;;;4989503;28;20050;-33
2021/06/19 01:12:09;;;;;;;1.40;0.60;;;24.10;59.90;;;;;;4991916;28;20472;-34
2021/06/19 01:14:35;;;;;;;0.63;0.60;;;24.10;60.00;;;;;;4975061;28;20027;-31
2021/06/19 01:17:00;;;;;;;0.70;0.70;;;24.00;60.00;;;;;;5004794;28;20030;-33
2021/06/19 01:19:26;;;;;;;0.77;0.68;;;24.00;60.10;;;;;;4994418;28;20027;-30
2021/06/19 01:21:53;;;;;;;0.80;0.80;;;24.10;60.10;;;;;;4991090;28;20117;-35
2021/06/19 01:24:19;;;;;;;0.70;0.70;;;24.10;60.00;;;;;;4972117;28;20034;-33
2021/06/19 01:26:44;;;;;;;0.77;0.77;;;24.10;60.10;;;;;;4989805;28;20034;-33
2021/06/19 01:29:10;;;;;;;0.77;0.77;;;24.00;60.20;;;;;;4989677;28;20474;-32
2021/06/19 01:31:39;;;;;;;1.13;0.80;;;24.10;60.10;;;;;;4990978;28;20029;-31
2021/06/19 01:34:04;;;;;;;0.70;0.70;;;24.10;60.10;;;;;;4991103;28;20092;-30
2021/06/19 01:36:30;;;;;;;0.80;0.80;;;24.10;60.10;;;;;;4989791;28;20027;-31
2021/06/19 01:38:55;;;;;;;0.60;0.60;;;24.10;60.10;;;;;;4989111;28;20374;-30
2021/06/19 01:41:22;;;;;;;0.60;0.60;;;24.00;60.10;;;;;;4990559;28;20095;-30
2021/06/19 01:43:48;;;;;;;2.72;0.77;;;24.00;59.90;;;;;;4990258;28;20030;-32
2021/06/19 01:46:15;;;;;;;0.68;0.65;;;24.10;60.10;;;;;;4992268;28;20049;-30
2021/06/19 01:48:40;;;;;;;0.70;0.70;;;24.10;59.90;;;;;;4987958;28;20030;-30
2021/06/19 01:51:08;;;;;;;1.08;0.80;;;24.10;59.90;;;;;;4987584;28;20046;-32
2021/06/19 01:53:33;;;;;;;0.93;0.90;;;24.00;60.00;;;;;;4989326;28;20030;-31
2021/06/19 01:55:59;;;;;;;0.60;0.60;;;24.10;60.10;;;;;;4988453;28;20023;-31
2021/06/19 01:58:24;;;;;;;1.05;0.70;;;24.00;60.10;;;;;;4988912;28;20499;-31
2021/06/19 02:00:50;;;;;;;0.70;0.70;;;24.00;60.10;;;;;;4990332;28;20034;-32
2021/06/19 02:03:16;;;;;;;0.63;0.63;;;24.00;60.00;;;;;;4989509;28;20029;-34
2021/06/19 02:05:42;;;;;;;0.80;0.80;;;24.10;60.10;;;;;;4988594;28;20085;-32
2021/06/19 02:08:08;;;;;;;1.30;0.77;;;24.00;60.10;;;;;;4987691;28;20031;-35
2021/06/19 02:10:38;;;;;;;0.90;0.90;;;24.10;60.10;;;;;;4991340;28;20025;-31
2021/06/19 02:13:04;;;;;;;0.80;0.80;;;24.10;60.00;;;;;;4992119;28;20080;-32
2021/06/19 02:15:30;;;;;;;0.63;0.63;;;24.10;60.00;;;;;;5000418;28;20103;-33
2021/06/19 02:17:56;;;;;;;1.38;0.70;;;24.10;60.10;;;;;;4988141;28;20053;-35
2021/06/19 02:20:21;;;;;;;1.50;0.60;;;24.10;60.10;;;;;;4988590;28;20061;-32
2021/06/19 02:22:47;;;;;;;0.63;0.63;;;24.20;59.90;;;;;;4990305;28;20030;-31
2021/06/19 02:25:15;;;;;;;0.70;0.70;;;24.20;60.70;;;;;;4991247;28;20030;-33
2021/06/19 02:27:46;;;;;;;0.98;0.98;;;24.00;59.90;;;;;;4987993;28;20132;-30
2021/06/19 02:30:12;;;;;;;2.00;0.70;;;24.00;60.10;;;;;;4987739;28;20019;-32
2021/06/19 02:32:38;;;;;;;0.60;0.60;;;24.10;60.10;;;;;;4989398;28;20054;-30
2021/06/19 02:35:04;;;;;;;0.70;0.68;;;24.10;60.00;;;;;;4987487;28;20059;-31
2021/06/19 02:37:30;;;;;;;0.60;0.55;;;24.00;60.10;;;;;;4991302;28;20398;-29
2021/06/19 02:39:55;;;;;;;0.80;0.80;;;24.00;60.40;;;;;;4990944;28;20026;-30
2021/06/19 02:42:21;;;;;;;0.65;0.65;;;24.00;60.20;;;;;;4985682;28;20030;-29
2021/06/19 02:44:47;;;;;;;0.73;0.70;;;23.90;60.30;;;;;;4988047;28;20030;-31
2021/06/19 02:47:12;;;;;;;0.80;0.77;;;23.90;60.50;;;;;;4989264;28;20109;-30
2021/06/19 02:49:38;;;;;;;0.75;0.73;;;23.90;60.70;;;;;;4990298;28;20042;-29
2021/06/19 02:52:03;;;;;;;1.00;0.70;;;23.90;60.50;;;;;;4988953;28;20034;-32
2021/06/19 02:54:29;;;;;;;1.55;0.80;;;23.90;60.40;;;;;;4988944;28;20533;-31
2021/06/19 02:56:55;;;;;;;0.65;0.60;;;23.90;60.60;;;;;;4988955;28;20033;-35
2021/06/19 02:59:20;;;;;;;0.80;0.80;;;23.90;60.40;;;;;;4987645;28;20095;-30
2021/06/19 03:01:46;;;;;;;1.02;0.93;;;23.90;60.70;;;;;;4989629;28;20520;-29
2021/06/19 03:04:15;;;;;;;1.27;0.80;;;23.90;60.60;;;;;;5005490;28;20034;-31
2021/06/19 03:06:40;;;;;;;0.88;0.80;;;23.90;60.60;;;;;;4987598;28;20105;-29
2021/06/19 03:09:06;;;;;;;1.45;0.80;;;23.90;60.60;;;;;;5002701;28;20121;-31
2021/06/19 03:11:32;;;;;;;0.65;0.65;;;23.90;60.60;;;;;;4986860;28;20022;-32
2021/06/19 03:13:57;;;;;;;0.75;0.75;;;23.90;60.60;;;;;;4988007;28;20031;-31
2021/06/19 03:16:23;;;;;;;0.73;0.60;;;23.90;60.60;;;;;;4991976;28;20445;-31
2021/06/19 03:18:48;;;;;;;0.65;0.65;;;23.90;60.50;;;;;;4993476;28;20573;-33
2021/06/19 03:21:14;;;;;;;0.52;0.52;;;23.90;60.60;;;;;;4992775;28;20278;-29
2021/06/19 03:23:39;;;;;;;1.80;0.75;;;23.80;60.80;;;;;;4989236;28;20029;-31
2021/06/19 03:26:05;;;;;;;0.80;0.80;;;23.80;60.70;;;;;;4987498;28;20512;-33
2021/06/19 03:28:31;;;;;;;0.90;0.73;;;23.90;60.70;;;;;;4990747;28;20089;-29
2021/06/19 03:30:56;;;;;;;0.57;0.57;;;23.90;60.80;;;;;;4988089;28;20405;-33
2021/06/19 03:33:22;;;;;;;0.75;0.75;;;23.90;60.60;;;;;;4987159;28;20022;-31
2021/06/19 03:35:47;;;;;;;0.68;0.68;;;23.90;60.60;;;;;;4986349;28;20057;-30
2021/06/19 03:38:13;;;;;;;0.85;0.63;;;23.90;60.60;;;;;;4987389;28;20031;-32
2021/06/19 03:40:39;;;;;;;0.70;0.70;;;23.90;60.70;;;;;;4989619;28;20397;-36
2021/06/19 03:43:04;;;;;;;0.70;0.70;;;23.90;60.70;;;;;;4988889;28;20027;-30
2021/06/19 03:45:31;;;;;;;0.77;0.77;;;23.90;60.60;;;;;;4987183;28;20456;-32
2021/06/19 03:47:57;;;;;;;1.45;0.70;;;23.90;60.40;;;;;;4987047;28;20058;-38
2021/06/19 03:50:25;;;;;;;0.70;0.70;;;23.80;60.70;;;;;;4986907;28;20522;-38
2021/06/19 03:52:51;;;;;;;0.63;0.63;;;23.80;60.70;;;;;;4987593;28;20470;-32
2021/06/19 03:55:17;;;;;;;0.60;0.60;;;23.80;60.70;;;;;;4991698;28;20069;-30
2021/06/19 03:57:43;;;;;;;0.70;0.70;;;23.80;60.80;;;;;;4986898;28;20026;-33
2021/06/19 04:00:10;;;;;;;0.70;0.65;;;23.90;60.60;;;;;;4987022;28;20535;-34
2021/06/19 04:02:36;;;;;;;0.80;0.68;;;23.80;60.70;;;;;;4987356;28;20049;-32
2021/06/19 04:05:01;;;;;;;1.02;0.55;;;23.90;60.70;;;;;;4989119;28;20026;-29
2021/06/19 04:07:27;;;;;;;1.00;0.60;;;23.80;60.50;;;;;;4991409;28;20390;-30
2021/06/19 04:09:53;;;;;;;0.88;0.50;;;23.80;60.70;;;;;;4987288;28;20103;-33
2021/06/19 04:12:21;;;;;;;0.60;0.52;;;23.80;60.80;;;;;;4986861;28;20031;-35
2021/06/19 04:14:47;;;;;;;0.60;0.50;;;23.90;60.70;;;;;;4990723;28;20026;-31
2021/06/19 04:17:12;;;;;;;0.70;0.70;;;23.80;60.70;;;;;;4992401;28;20158;-33
2021/06/19 04:19:38;;;;;;;0.60;0.60;;;23.80;60.70;;;;;;4975447;28;20452;-30
2021/06/19 04:22:04;;;;;;;0.80;0.80;;;23.80;60.70;;;;;;5009120;28;20026;-29
2021/06/19 04:24:30;;;;;;;1.75;0.57;;;23.80;60.80;;;;;;4991543;28;20112;-34
2021/06/19 04:26:56;;;;;;;0.73;0.52;;;23.80;60.90;;;;;;4989693;28;20074;-32
2021/06/19 04:29:21;;;;;;;0.70;0.68;;;23.80;60.90;;;;;;4990731;28;20018;-31
2021/06/19 04:31:47;;;;;;;0.73;0.55;;;23.80;61.00;;;;;;4992619;28;20386;-33
2021/06/19 04:34:13;;;;;;;0.65;0.65;;;23.80;60.90;;;;;;4994750;28;20030;-33
2021/06/19 04:36:38;;;;;;;0.80;0.55;;;23.80;60.90;;;;;;4991183;28;20078;-32
2021/06/19 04:39:04;;;;;;;0.60;0.45;;;23.80;60.80;;;;;;4990378;28;20105;-34
2021/06/19 04:41:36;;;;;;;0.57;0.50;;;23.80;61.00;;;;;;4990325;28;20041;-35
2021/06/19 04:46:27;;;;;;;0.73;0.60;;;23.80;60.90;;;;;;4994155;28;20049;-32
2021/06/19 04:48:53;;;;;;;0.60;0.60;;;23.70;61.00;;;;;;4986941;28;20042;-30
2021/06/19 04:51:18;;;;;;;0.60;0.60;;;23.80;61.00;;;;;;4991210;28;20089;-32
2021/06/19 04:53:44;;;;;;;0.63;0.50;;;23.80;60.90;;;;;;4989282;28;20058;-33
2021/06/19 04:56:10;;;;;;;1.40;0.77;;;23.70;61.00;;;;;;5005282;28;20027;-33
2021/06/19 04:58:36;;;;;;;0.50;0.50;;;23.80;61.00;;;;;;4992098;28;20023;-31
2021/06/19 05:01:02;;;;;;;1.05;0.95;;;23.80;61.10;;;;;;4993019;28;20032;-32
2021/06/19 05:03:27;;;;;;;0.60;0.50;;;23.70;61.90;;;;;;4988299;28;20030;-31
2021/06/19 05:05:53;;;;;;;0.50;0.50;;;23.70;61.10;;;;;;4990886;28;20630;-30
2021/06/19 05:08:19;;;;;;;0.50;0.50;;;23.80;61.10;;;;;;4989074;28;20579;-32
2021/06/19 05:10:44;;;;;;;0.75;0.68;;;23.70;61.10;;;;;;4992313;28;20548;-30
2021/06/19 05:13:10;;;;;;;0.60;0.60;;;23.70;61.10;;;;;;4974916;28;20034;-29
2021/06/19 05:15:36;;;;;;;0.65;0.63;;;23.80;60.80;;;;;;4991185;28;20056;-32
2021/06/19 05:18:01;;;;;;;0.55;0.55;;;23.80;60.90;;;;;;4991366;28;20030;-30
2021/06/19 05:20:28;;;;;;;1.25;0.77;;;23.70;60.90;;;;;;4989503;28;20118;-32
2021/06/19 05:22:58;;;;;;;0.60;0.60;;;23.70;61.10;;;;;;4990035;28;20042;-29
2021/06/19 05:25:23;;;;;;;0.65;0.65;;;23.70;61.10;;;;;;4992807;28;20026;-30
2021/06/19 05:27:49;;;;;;;0.88;0.63;;;23.70;61.10;;;;;;4989592;28;20088;-30
2021/06/19 05:30:15;;;;;;;0.50;0.47;;;23.70;61.20;;;;;;4989087;28;20022;-34
2021/06/19 05:32:41;;;;;;;0.57;0.57;;;23.70;61.10;;;;;;4988555;28;20048;-32
2021/06/19 05:35:07;;;;;;;0.60;0.60;;;23.70;61.90;;;;;;4989679;28;20470;-33
2021/06/19 05:37:33;;;;;;;0.68;0.68;;;23.70;61.20;;;;;;4991989;28;20030;-31
2021/06/19 05:39:58;;;;;;;0.68;0.68;;;23.70;61.10;;;;;;4992070;28;20421;-31
2021/06/19 05:42:24;;;;;;;0.60;0.60;;;23.70;61.10;;;;;;4993525;28;20061;-32
2021/06/19 05:44:49;;;;;;;0.85;0.60;;;23.70;61.20;;;;;;4989472;28;20041;-29
2021/06/19 05:47:15;;;;;;;0.52;0.50;;;23.70;61.10;;;;;;4988998;28;20031;-29
2021/06/19 05:49:41;;;;;;;0.50;0.50;;;23.70;61.20;;;;;;4990173;28;20519;-31
2021/06/19 05:52:07;;;;;;;0.50;0.50;;;23.70;61.10;;;;;;4993418;28;20027;-30
2021/06/19 05:54:38;;;;;;;1.05;0.50;;;23.70;61.10;;;;;;4989309;28;20026;-30
2021/06/19 05:57:07;;;;;;;0.90;0.65;;;23.70;61.10;;;;;;4983734;28;20073;-31
2021/06/19 05:59:33;;;;;;;0.47;0.47;;;23.70;61.20;;;;;;5003134;28;20060;-31
2021/06/19 06:01:59;;;;;;;0.88;0.63;;;23.70;61.20;;;;;;4989462;28;20122;-34
2021/06/19 06:04:24;;;;;;;0.50;0.50;;;23.70;61.00;;;;;;4993031;28;20524;-34
2021/06/19 06:06:50;;;;;;;0.50;0.50;;;23.80;60.80;;;;;;4970385;28;20023;-33
2021/06/19 06:09:16;;;;;;;0.77;0.60;;;23.70;61.60;;;;;;4989297;28;20042;-31
2021/06/19 06:11:41;;;;;;;0.60;0.60;;;23.70;61.90;;;;;;4987509;28;20038;-33
2021/06/19 06:14:11;;;;;;;1.70;0.80;;;23.70;62.10;;;;;;4987135;28;20041;-31
2021/06/19 06:16:36;;;;;;;0.93;0.70;;;23.70;62.20;;;;;;4989874;28;20105;-31
2021/06/19 06:19:02;;;;;;;1.20;0.68;;;23.70;62.00;;;;;;4991101;28;20137;-32
2021/06/19 06:21:27;;;;;;;1.83;0.70;;;23.70;62.00;;;;;;4988161;28;20023;-33
2021/06/19 06:23:53;;;;;;;0.98;0.73;;;23.70;62.00;;;;;;4990014;28;20037;-32
2021/06/19 06:26:19;;;;;;;0.95;0.70;;;23.60;62.10;;;;;;4988835;28;20038;-37
2021/06/19 06:28:44;;;;;;;3.15;0.50;;;23.60;62.20;;;;;;4989832;28;20125;-40
2021/06/19 06:31:10;;;;;;;6.03;0.68;;;23.60;62.30;;;;;;4972824;28;20026;-31
2021/06/19 06:33:35;;;;;;;1.42;0.63;;;23.60;62.10;;;;;;4989558;28;20456;-34
2021/06/19 06:36:01;;;;;;;0.60;0.55;;;23.60;62.10;;;;;;5003053;28;20037;-33
2021/06/19 06:38:27;;;;;;;0.70;0.60;;;23.60;62.00;;;;;;4972662;28;20351;-33
2021/06/19 06:40:52;;;;;;;0.65;0.50;;;23.60;62.00;;;;;;4989435;28;20034;-32
2021/06/19 06:43:18;;;;;;;0.68;0.60;;;23.60;61.90;;;;;;4991708;28;20034;-33
2021/06/19 06:45:44;;;;;;;0.70;0.55;;;23.60;61.90;;;;;;4987502;28;20536;-34
2021/06/19 06:48:09;;;;;;;1.85;0.45;;;23.60;62.00;;;;;;4988674;28;20050;-32
2021/06/19 06:50:36;;;;;;;0.90;0.90;;;23.60;62.00;;;;;;4988478;28;20081;-33
2021/06/19 06:53:01;;;;;;;0.60;0.52;;;23.70;61.70;;;;;;4989128;28;20073;-36
2021/06/19 06:55:27;;;;;;;0.70;0.70;;;23.70;61.50;;;;;;4990323;28;20057;-31
2021/06/19 06:57:52;;;;;;;0.70;0.70;;;23.70;61.50;;;;;;4989529;28;20038;-33
2021/06/19 07:00:19;;;;;;;1.10;0.60;;;23.80;61.30;;;;;;4988365;28;20026;-34
2021/06/19 07:02:44;;;;;;;0.77;0.75;;;23.70;61.50;;;;;;4988016;28;20535;-37
2021/06/19 07:05:10;;;;;;;3.75;0.90;;;23.70;61.70;;;;;;4988662;28;20050;-32
2021/06/19 07:07:37;;;;;;;1.42;0.80;;;23.70;61.60;;;;;;4988487;28;20042;-35
2021/06/19 07:10:04;;;;;;;2.88;1.05;;;23.80;61.60;;;;;;4990110;28;20069;-37
2021/06/19 07:12:29;;;;;;;1.15;0.70;;;23.80;61.60;;;;;;4984667;28;20030;-31
2021/06/19 07:14:55;;;;;;;2.15;0.90;;;23.80;61.70;;;;;;4986247;28;20034;-33
2021/06/19 07:17:20;;;;;;;2.28;0.60;;;23.70;61.70;;;;;;4987954;28;20042;-31
2021/06/19 07:19:46;;;;;;;3.78;0.90;;;23.70;61.70;;;;;;4989113;28;20133;-36
2021/06/19 07:22:12;;;;;;;2.20;0.70;;;23.70;61.60;;;;;;4988691;28;20038;-34
2021/06/19 07:24:37;;;;;;;8.93;1.00;;;23.80;61.40;;;;;;4988397;28;20495;-32
2021/06/19 07:27:03;;;;;;;2.20;0.90;;;23.80;61.30;;;;;;4988679;28;20026;-32
2021/06/19 07:29:29;;;;;;;1.15;0.68;;;23.90;61.30;;;;;;4987899;28;20421;-34
2021/06/19 07:31:54;;;;;;;2.78;0.80;;;23.70;61.50;;;;;;4987499;28;20472;-32
2021/06/19 07:34:20;;;;;;;8.30;0.70;;;23.80;61.30;;;;;;4990856;28;20029;-33
2021/06/19 07:36:46;;;;;;;7.93;1.00;;;23.80;61.30;;;;;;4988399;28;20174;-38
2021/06/19 07:39:14;;;;;;;2.83;0.80;;;23.80;62.10;;;;;;4987980;28;20038;-34
2021/06/19 07:41:41;;;;;;;1.48;0.80;;;23.90;61.20;;;;;;4990308;28;20093;-30
2021/06/19 07:44:06;;;;;;;0.75;0.68;;;23.80;61.30;;;;;;4988973;28;20030;-31
2021/06/19 07:46:32;;;;;;;0.77;0.60;;;23.80;61.60;;;;;;4989083;28;20038;-30
2021/06/19 07:48:57;;;;;;;1.10;0.75;;;23.80;61.70;;;;;;4987912;28;20188;-32
2021/06/19 07:51:23;;;;;;;4.30;0.80;;;23.80;61.60;;;;;;4990951;28;20546;-33
2021/06/19 07:53:48;;;;;;;4.10;0.93;;;23.80;61.80;;;;;;4991849;28;20041;-28
2021/06/19 07:56:14;;;;;;;0.80;0.80;;;23.70;62.00;;;;;;4988795;28;20026;-30
2021/06/19 07:58:40;;;;;;;2.67;1.10;;;23.70;62.10;;;;;;4991089;28;20378;-32
2021/06/19 08:01:05;;;;;;;1.50;1.17;;;23.80;62.00;;;;;;4992723;28;20026;-30
2021/06/19 08:03:31;;;;;;;5.40;1.50;;;23.70;62.20;;;;;;4991902;28;20439;-29
2021/06/19 08:05:56;;;;;;;2.88;1.13;;;23.70;62.00;;;;;;4992831;28;20536;-30
2021/06/19 08:08:22;;;;;;;2.75;1.20;;;23.70;62.40;;;;;;4986914;28;20062;-31
2021/06/19 08:10:51;;;;;;;8.93;1.40;;;23.80;62.10;;;;;;4991467;28;20109;-31
2021/06/19 08:13:16;;;;;;;5.30;1.40;;;23.80;62.20;;;;;;4992447;28;20483;-33
2021/06/19 08:15:42;;;;;;;4.22;1.50;;;23.80;62.00;;;;;;4992100;28;20059;-32
2021/06/19 08:18:08;;;;;;;2.47;2.05;;;23.80;62.40;;;;;;4990996;28;20022;-35
2021/06/19 08:20:34;;;;;;;5.20;2.28;;;23.70;61.80;;;;;;4991119;28;20061;-32
2021/06/19 08:23:00;;;;;;;2.47;2.28;;;23.80;61.40;;;;;;4991749;28;20062;-32
2021/06/19 08:25:25;;;;;;;3.00;2.70;;;23.80;61.40;;;;;;4992811;28;20027;-31
2021/06/19 08:27:51;;;;;;;5.65;2.42;;;23.80;61.30;;;;;;4988786;28;20125;-32
2021/06/19 08:30:17;;;;;;;2.70;2.50;;;23.70;61.10;;;;;;4989711;28;20065;-35
2021/06/19 08:32:42;;;;;;;3.42;2.60;;;23.80;60.80;;;;;;4991191;28;20040;-32
2021/06/19 08:35:09;;;;;;;2.50;2.40;;;23.80;60.30;;;;;;4990676;28;20027;-36
2021/06/19 08:37:34;;;;;;;3.50;3.30;;;23.80;60.50;;;;;;4991316;28;20447;-32
2021/06/19 08:40:00;;;;;;;2.88;2.67;;;23.70;60.80;;;;;;4991521;28;20105;-33
2021/06/19 08:42:26;;;;;;;3.10;2.90;;;23.60;61.50;;;;;;4999345;28;20038;-33
2021/06/19 08:44:52;;;;;;;3.20;3.03;;;23.60;61.20;;;;;;4637907;28;10000294;-32
2021/06/19 08:47:17;;;;;;;3.90;3.10;;;23.60;61.00;;;;;;4980028;28;20108;-32
2021/06/19 08:49:47;;;;;;;3.47;3.17;;;23.40;61.90;;;;;;4987435;28;20063;-32
2021/06/19 08:52:13;;;;;;;3.55;3.25;;;23.30;62.10;;;;;;4974892;28;20046;-31
2021/06/19 08:54:38;;;;;;;3.40;3.20;;;23.10;62.80;;;;;;5003929;28;20707;-25
2021/06/19 08:57:11;;;;;;;3.53;3.22;;;23.10;63.20;;;;;;5004602;28;20046;-37
2021/06/19 08:59:37;;;;;;;4.28;2.88;;;23.00;64.00;;;;;;5006312;28;20045;-33
2021/06/19 09:02:04;;;;;;;3.38;3.08;;;22.90;64.30;;;;;;4994714;28;20054;-31
2021/06/19 09:04:29;;;;;;;3.85;3.30;;;22.90;64.40;;;;;;5002845;28;20116;-32
2021/06/19 09:06:55;;;;;;;3.72;3.42;;;22.80;64.60;;;;;;5002973;28;20546;-33
2021/06/19 09:09:21;;;;;;;3.35;3.10;;;22.80;64.30;;;;;;5003663;28;20050;-32
2021/06/19 09:11:53;;;;;;;3.72;3.00;;;22.70;64.80;;;;;;4985457;28;20053;-33
2021/06/19 09:14:26;;;;;;;3.13;2.78;;;22.80;64.70;;;;;;5004637;28;20554;-34
2021/06/19 09:17:02;;;;;;;3.05;2.85;;;22.90;64.40;;;;;;5005823;28;20092;-30
2021/06/19 09:19:30;;;;;;;3.13;2.85;;;22.90;64.20;;;;;;4992444;28;20069;-30
2021/06/19 09:22:07;;;;;;;3.38;3.15;;;22.90;64.20;;;;;;5001946;28;20053;-33
2021/06/19 09:24:52;;;;;;;3.75;3.40;;;23.00;64.40;;;;;;4998994;28;20050;-32
2021/06/19 09:27:38;;;;;;;3.85;3.42;;;22.80;64.80;;;;;;4982484;28;20053;-34
2021/06/19 09:30:14;;;;;;;3.08;2.88;;;22.70;65.20;;;;;;5003634;28;20057;-32
2021/06/19 09:32:43;;;;;;;3.60;3.38;;;22.70;65.60;;;;;;5004505;28;20037;-32
2021/06/19 09:35:16;;;;;;;3.63;3.30;;;22.80;65.60;;;;;;5002405;28;20046;-32
2021/06/19 09:37:43;;;;;;;3.40;3.20;;;22.80;66.50;;;;;;5004042;28;20058;-25
2021/06/19 09:40:21;;;;;;;3.80;3.35;;;22.90;66.70;;;;;;5019398;28;20047;-34
2021/06/19 09:42:47;;;;;;;3.42;3.22;;;22.80;67.10;;;;;;4985250;28;20054;-34
2021/06/19 09:45:23;;;;;;;5.07;3.72;;;22.80;67.30;;;;;;4997374;28;20424;-33
2021/06/19 09:47:49;;;;;;;6.30;3.85;;;22.90;67.30;;;;;;4987975;28;20132;-34
2021/06/19 09:50:19;;;;;;;5.57;3.63;;;22.90;66.90;;;;;;5003303;28;20053;-31
2021/06/19 09:52:44;;;;;;;3.58;3.33;;;22.90;66.60;;;;;;4996962;28;20603;-34
2021/06/19 09:55:11;;;;;;;3.80;3.50;;;22.90;66.40;;;;;;4986096;28;20141;-35
2021/06/19 09:57:40;;;;;;;3.08;2.88;;;22.90;66.90;;;;;;4998308;28;20124;-34
2021/06/19 10:00:10;;;;;;;4.30;4.00;;;23.00;66.70;;;;;;5000258;28;20073;-33
2021/06/19 10:02:36;;;;;;;4.05;3.67;;;22.90;66.90;;;;;;4985324;28;20026;-31
2021/06/19 10:05:02;;;;;;;4.45;4.15;;;23.00;66.10;;;;;;4972908;28;20460;-34
2021/06/19 10:07:28;;;;;;;4.25;3.95;;;22.90;67.10;;;;;;4971925;28;20451;-35
2021/06/19 10:09:56;;;;;;;4.70;4.30;;;22.90;67.20;;;;;;4985227;28;20034;-35
2021/06/19 10:12:32;;;;;;;4.72;4.25;;;23.00;68.20;;;;;;4987826;28;20034;-37
2021/06/19 10:15:00;;;;;;;4.38;3.92;;;22.90;66.20;;;;;;4988813;28;20117;-33
2021/06/19 10:17:29;;;;;;;4.60;4.30;;;22.90;66.90;;;;;;4987823;28;20113;-34
2021/06/19 10:19:55;;;;;;;4.47;4.07;;;22.70;67.20;;;;;;4989620;28;20023;-31
2021/06/19 10:22:25;;;;;;;4.00;3.70;;;22.50;68.70;;;;;;4975113;28;20041;-36
2021/06/19 10:24:51;;;;;;;3.85;3.50;;;22.70;68.30;;;;;;4987738;28;20034;-35
2021/06/19 10:27:17;;;;;;;3.70;3.40;;;22.90;66.90;;;;;;4968360;28;20539;-28
2021/06/19 10:29:45;;;;;;;3.25;2.97;;;23.00;67.10;;;;;;4977902;28;20030;-33
2021/06/19 10:32:10;;;;;;;3.80;2.90;;;23.10;66.40;;;;;;4980525;28;20505;-32
2021/06/19 10:34:38;;;;;;;3.38;3.17;;;23.20;65.80;;;;;;4973508;28;20106;-33
2021/06/19 10:37:09;;;;;;;4.60;4.18;;;23.40;65.70;;;;;;4988236;28;20033;-29
2021/06/19 10:39:41;;;;;;;3.60;3.40;;;23.20;65.60;;;;;;4985137;28;20034;-29
2021/06/19 10:42:33;;;;;;;4.07;3.88;;;23.30;65.70;;;;;;4984782;28;20058;-28
2021/06/19 10:45:06;;;;;;;4.35;4.00;;;23.40;65.40;;;;;;4981665;28;20509;-26
2021/06/19 10:48:05;;;;;;;4.28;3.97;;;23.40;65.30;;;;;;4983961;28;20029;-31
2021/06/19 10:50:31;;;;;;;4.57;4.05;;;23.30;65.10;;;;;;4981706;28;20062;-31
2021/06/19 10:53:10;;;;;;;4.38;4.00;;;23.40;65.00;;;;;;4985361;28;20034;-27
2021/06/19 10:55:42;;;;;;;3.85;3.65;;;23.30;65.30;;;;;;4970831;28;20116;-30
2021/06/19 10:58:28;;;;;;;4.10;3.58;;;23.20;65.50;;;;;;4985935;28;20030;-32
2021/06/19 11:00:57;;;;;;;3.85;3.55;;;23.10;66.30;;;;;;4983617;28;20039;-31
2021/06/19 11:03:47;;;;;;;4.85;4.07;;;23.10;65.80;;;;;;4985216;28;20049;-33
2021/06/19 11:06:21;;;;;;;4.18;3.80;;;23.20;66.00;;;;;;4985279;28;20106;-31
2021/06/19 11:09:26;;;;;;;4.00;3.70;;;23.30;65.80;;;;;;4983632;28;20126;-27
2021/06/19 11:11:51;;;;;;;4.35;4.10;;;23.30;65.40;;;;;;4909028;29;20053;-29
2021/06/19 11:14:37;;;;;;;4.10;3.80;;;23.30;65.50;;;;;;4903675;29;20047;-29
2021/06/19 11:17:03;;;;;;;4.38;4.07;;;23.20;65.60;;;;;;4914257;29;20035;-33
2021/06/19 11:19:33;;;;;;;4.10;3.70;;;23.30;65.60;;;;;;4913662;29;20044;-29
2021/06/19 11:22:26;;;;;;;4.07;3.78;;;23.20;66.00;;;;;;4916830;29;20670;-28
2021/06/19 11:25:28;;;;;;;3.67;3.42;;;23.20;66.70;;;;;;4915747;29;20450;-30
2021/06/19 11:28:09;;;;;;;3.90;3.60;;;22.90;67.70;;;;;;4916810;29;20515;-35
2021/06/19 11:30:35;;;;;;;3.72;3.50;;;23.00;67.80;;;;;;4921215;29;20123;-31
2021/06/19 11:33:16;;;;;;;3.75;3.45;;;23.10;67.80;;;;;;4921091;29;20160;-33
2021/06/19 11:35:45;;;;;;;3.58;3.28;;;23.00;67.90;;;;;;4918653;29;20032;-35
2021/06/19 11:38:11;;;;;;;3.10;2.90;;;23.20;67.70;;;;;;4919080;29;20024;-33
2021/06/19 11:40:37;;;;;;;2.97;2.78;;;23.30;67.50;;;;;;4918732;29;20047;-30
2021/06/19 11:43:06;;;;;;;3.72;3.40;;;23.40;67.40;;;;;;4917825;29;20111;-32
2021/06/19 11:45:35;;;;;;;4.38;3.47;;;23.40;67.30;;;;;;4901866;29;20148;-30
2021/06/19 11:48:05;;;;;;;3.35;3.15;;;23.50;67.20;;;;;;4967836;28;20054;-31
2021/06/19 11:50:38;;;;;;;5.72;3.20;;;23.50;67.20;;;;;;4985044;28;20038;-30
2021/06/19 11:53:27;;;;;;;7.45;3.08;;;23.60;67.10;;;;;;4985266;28;20033;-31
2021/06/19 11:56:16;;;;;;;3.45;3.15;;;23.40;67.20;;;;;;4982736;28;20038;-31
2021/06/19 11:58:48;;;;;;;2.40;2.20;;;23.50;66.90;;;;;;4982094;28;20034;-34
2021/06/19 12:01:15;;;;;;;2.58;2.00;;;23.50;66.60;;;;;;4984684;28;20034;-33
2021/06/19 12:03:40;;;;;;;3.00;2.30;;;23.60;66.20;;;;;;4966280;28;20019;-26
2021/06/19 12:06:06;;;;;;;2.67;2.20;;;23.70;66.30;;;;;;4983977;28;20512;-36
2021/06/19 12:08:31;;;;;;;3.17;2.15;;;23.70;66.10;;;;;;4982337;28;20525;-28
2021/06/19 12:10:57;;;;;;;2.22;1.98;;;23.70;66.10;;;;;;4982541;28;20035;-29
2021/06/19 12:13:33;;;;;;;1.80;1.70;;;23.70;66.10;;;;;;4983984;28;20034;-31
2021/06/19 12:15:59;;;;;;;2.10;2.00;;;23.70;66.20;;;;;;4982830;28;20026;-33
2021/06/19 12:18:25;;;;;;;2.30;2.10;;;23.80;66.90;;;;;;4981285;28;20202;-31
2021/06/19 12:21:10;;;;;;;2.40;2.20;;;23.80;65.90;;;;;;4981703;28;20113;-30
2021/06/19 12:23:40;;;;;;;2.70;1.88;;;23.80;65.70;;;;;;4982285;28;20030;-30
2021/06/19 12:26:07;;;;;;;2.25;2.05;;;24.00;66.10;;;;;;4981348;28;20489;-33
2021/06/19 12:28:37;;;;;;;2.10;1.92;;;24.10;65.30;;;;;;4981988;28;20129;-29
2021/06/19 12:31:03;;;;;;;2.85;2.00;;;24.10;65.00;;;;;;4981395;28;20034;-31
2021/06/19 12:33:30;;;;;;;1.90;1.80;;;24.20;64.70;;;;;;4983120;28;20066;-35
2021/06/19 12:35:56;;;;;;;2.53;1.73;;;24.20;64.50;;;;;;4996505;28;20036;-33
2021/06/19 12:38:22;;;;;;;1.98;1.77;;;24.20;64.40;;;;;;4950646;28;20029;-31
2021/06/19 12:40:48;;;;;;;2.70;2.13;;;24.30;64.40;;;;;;4952609;28;20085;-33
2021/06/19 12:43:14;;;;;;;1.80;1.70;;;24.20;64.50;;;;;;4987926;28;20038;-32
2021/06/19 12:45:47;;;;;;;2.00;1.90;;;24.30;64.00;;;;;;4968479;28;20113;-33
2021/06/19 12:48:22;;;;;;;2.30;2.20;;;24.20;64.10;;;;;;4985333;28;20145;-32
2021/06/19 12:50:48;;;;;;;1.90;1.80;;;24.30;64.50;;;;;;4985559;28;20057;-31